This is the latest recevied weather packets stored in our database for station/object VE1AIC-4. If no packets are shown the sender has not sent any weather packets the latest 10 day(s).
| Time | Temp. | Humidity | Pressure | Rain* | Wind** | Luminosity | Snow |
|---|---|---|---|---|---|---|---|
| 1777409145 | 13.33° C | 42% | 1022.7 hPa | 0 mm | - | 262 W/m² | - |
| 1777406139 | 13.33° C | 41% | 1023.1 hPa | 0 mm | - | 394 W/m² | - |
| 1777404342 | 13.33° C | 35% | 1023.3 hPa | 0 mm | - | 470 W/m² | - |
| 1777403132 | 13.33° C | 37% | 1023.5 hPa | 0 mm | - | 517 W/m² | - |
| 1777401922 | 13.33° C | 34% | 1023.8 hPa | 0 mm | - | 559 W/m² | - |
| 1777401333 | 13.33° C | 33% | 1023.9 hPa | 0 mm | - | 578 W/m² | - |
| 1777400188 | 12.78° C | 32% | 1024.2 hPa | 0 mm | - | 614 W/m² | - |
| 1777398358 | 12.22° C | 32% | 1024.8 hPa | 0 mm | - | 658 W/m² | - |
| 1777388163 | 8.89° C | 46% | 1026.1 hPa | 0 mm | - | 694 W/m² | - |
| 1777384531 | 7.78° C | 46% | 1026 hPa | 0 mm | - | 618 W/m² | - |
| 1777383962 | 7.78° C | 47% | 1026.1 hPa | 0 mm | - | 600 W/m² | - |
| 1777382745 | 7.22° C | 49% | 1026 hPa | 0 mm | - | 561 W/m² | - |
| 1777375542 | 5° C | 75% | 1025.9 hPa | 0 mm | - | 92 W/m² | - |
| 1777371966 | 2.78° C | 89% | 1026.1 hPa | 0 mm | - | 48 W/m² | - |
| 1777367140 | 1.67° C | 92% | 1025.8 hPa | 0 mm | - | 2 W/m² | - |
| 1777364168 | 1.67° C | 90% | 1025.7 hPa | 0 mm | - | 0 W/m² | - |
| 1777362399 | 1.67° C | 90% | 1025.7 hPa | 0 mm | - | 0 W/m² | - |
| 1777358841 | 2.78° C | 87% | 1025.8 hPa | 0 mm | - | 0 W/m² | - |
| 1777354544 | 2.78° C | 87% | 1026 hPa | 0 mm | - | 0 W/m² | - |
| 1777352726 | 3.33° C | 87% | 1026.2 hPa | 0 mm | - | 0 W/m² | - |
| 1777351568 | 3.33° C | 87% | 1026.1 hPa | 0 mm | - | 0 W/m² | - |
| 1777350927 | 3.89° C | 87% | 1026.2 hPa | 0 mm | - | 0 W/m² | - |
| 1777347921 | 3.89° C | 84% | 1026.2 hPa | 0 mm | - | 0 W/m² | - |
| 1777347332 | 3.89° C | 83% | 1026.2 hPa | 0 mm | - | 0 W/m² | - |
| 1777345538 | 3.89° C | 84% | 1026.4 hPa | 0 mm | - | 0 W/m² | - |
* Rain latest hour (hover to see other rain measurements)
** Current wind speed in m/s (hover to see current wind gust speed)